createdAt,value
2018-06-05T00:01:50.158Z,18.60
2018-06-05T00:04:18.384Z,18.50
2018-06-05T00:06:46.668Z,18.50
2018-06-05T00:09:14.825Z,18.50
2018-06-05T00:14:10.934Z,18.30
2018-06-05T00:16:39.107Z,18.20
2018-06-05T00:19:07.286Z,18.10
2018-06-05T00:21:35.475Z,18.10
2018-06-05T00:24:03.626Z,18.10
2018-06-05T00:26:31.792Z,18.10
2018-06-05T00:28:59.978Z,18.20
2018-06-05T00:31:28.131Z,18.20
2018-06-05T00:33:56.306Z,18.20
2018-06-05T00:36:24.468Z,18.20
2018-06-05T00:38:52.616Z,18.20
2018-06-05T00:41:20.871Z,18.10
2018-06-05T00:43:49.014Z,18.10
2018-06-05T00:46:17.169Z,18.10
2018-06-05T00:48:45.313Z,18.10
2018-06-05T00:51:24.678Z,18.00
2018-06-05T00:53:52.840Z,18.00
2018-06-05T00:56:21.095Z,17.90
2018-06-05T00:58:49.258Z,17.90
2018-06-05T01:01:17.667Z,17.90
2018-06-05T01:03:45.834Z,18.00
2018-06-05T01:06:13.993Z,17.90
2018-06-05T01:08:42.809Z,17.90
2018-06-05T01:11:11.013Z,17.90
2018-06-05T01:13:39.156Z,17.90
2018-06-05T01:16:25.047Z,17.90
2018-06-05T01:18:53.207Z,17.80
2018-06-05T01:21:21.367Z,17.70
2018-06-05T01:23:49.495Z,17.70
2018-06-05T01:26:17.743Z,17.60
2018-06-05T01:28:45.892Z,17.50
2018-06-05T01:31:14.055Z,17.40
2018-06-05T01:33:42.229Z,17.40
2018-06-05T01:36:10.382Z,17.30
2018-06-05T01:38:38.546Z,17.30
2018-06-05T01:41:06.706Z,17.30
2018-06-05T01:43:34.875Z,17.20
2018-06-05T01:46:03.003Z,17.20
2018-06-05T01:48:31.228Z,17.10
2018-06-05T01:50:59.363Z,17.00
2018-06-05T01:53:27.514Z,17.00
2018-06-05T01:55:55.700Z,17.00
2018-06-05T01:58:23.835Z,17.00
2018-06-05T02:00:51.997Z,17.10
2018-06-05T02:03:20.152Z,17.10
2018-06-05T02:05:48.308Z,17.10
2018-06-05T02:08:16.468Z,17.00
2018-06-05T02:10:44.631Z,17.00
2018-06-05T02:13:12.783Z,16.90
2018-06-05T02:15:40.939Z,16.90
2018-06-05T02:18:09.115Z,16.80
2018-06-05T02:20:37.283Z,16.80
2018-06-05T02:23:05.452Z,16.80
2018-06-05T02:25:33.633Z,16.90
2018-06-05T02:28:01.804Z,16.90
2018-06-05T02:30:29.970Z,17.00
2018-06-05T02:32:58.123Z,17.00
2018-06-05T02:35:32.205Z,17.10
2018-06-05T02:38:00.380Z,17.10
2018-06-05T02:40:28.592Z,17.20
2018-06-05T02:42:56.781Z,17.20
2018-06-05T02:45:24.952Z,17.20
2018-06-05T02:47:53.111Z,17.20
2018-06-05T02:50:21.266Z,17.10
2018-06-05T02:52:49.439Z,17.10
2018-06-05T02:55:17.624Z,16.90
2018-06-05T02:57:45.799Z,16.90
2018-06-05T03:00:13.960Z,16.70
2018-06-05T03:02:42.093Z,16.60
2018-06-05T03:05:10.238Z,16.60
2018-06-05T03:07:38.468Z,16.50
2018-06-05T03:10:06.639Z,16.50
2018-06-05T03:12:34.845Z,16.40
2018-06-05T03:15:02.992Z,16.30
2018-06-05T03:17:31.166Z,16.20
2018-06-05T03:19:59.381Z,16.20
2018-06-05T03:22:27.556Z,16.10
2018-06-05T03:24:55.684Z,16.10
2018-06-05T03:27:23.923Z,16.00
2018-06-05T03:29:52.090Z,16.00
2018-06-05T03:32:20.338Z,16.00
2018-06-05T03:34:48.504Z,15.90
2018-06-05T03:37:16.717Z,15.90
2018-06-05T03:39:44.881Z,15.80
2018-06-05T03:42:13.095Z,15.80
2018-06-05T03:44:41.251Z,15.80
2018-06-05T03:47:09.400Z,15.80
2018-06-05T03:49:40.597Z,15.70
2018-06-05T03:52:09.363Z,15.70
2018-06-05T03:54:37.622Z,15.70
2018-06-05T03:57:05.975Z,15.70
2018-06-05T03:59:37.551Z,15.70
2018-06-05T04:02:05.725Z,15.70
2018-06-05T04:04:33.893Z,15.70
2018-06-05T04:07:02.061Z,15.70
2018-06-05T04:09:30.221Z,15.80
2018-06-05T04:11:58.396Z,15.80
2018-06-05T04:14:26.530Z,15.80
2018-06-05T04:16:54.698Z,15.90
2018-06-05T04:19:22.850Z,15.90
2018-06-05T04:21:51.133Z,15.90
2018-06-05T04:24:19.300Z,15.90
2018-06-05T04:26:47.458Z,15.90
2018-06-05T04:29:15.630Z,16.00
2018-06-05T04:31:43.816Z,16.00
2018-06-05T04:34:11.982Z,16.10
2018-06-05T04:36:40.155Z,16.20
2018-06-05T04:39:08.342Z,16.30
2018-06-05T04:41:36.536Z,16.40
2018-06-05T04:44:04.795Z,16.70
2018-06-05T04:46:32.960Z,17.00
2018-06-05T04:49:01.133Z,17.40
2018-06-05T04:51:29.320Z,17.70
2018-06-05T04:53:57.491Z,17.90
2018-06-05T04:56:25.684Z,18.20
2018-06-05T04:58:53.867Z,18.50
2018-06-05T05:01:22.034Z,18.70
2018-06-05T05:03:50.232Z,18.90
2018-06-05T05:06:18.453Z,19.20
2018-06-05T05:08:46.627Z,19.40
2018-06-05T05:11:14.794Z,19.60
2018-06-05T05:13:42.974Z,19.70
2018-06-05T05:16:11.131Z,19.70
2018-06-05T05:18:39.300Z,20.00
2018-06-05T05:21:07.527Z,20.00
2018-06-05T05:23:35.774Z,19.90
2018-06-05T05:26:03.948Z,19.70
2018-06-05T05:28:32.131Z,19.70
2018-06-05T05:31:00.316Z,19.60
2018-06-05T05:33:28.487Z,19.40
2018-06-05T05:35:56.718Z,19.50
2018-06-05T05:38:24.870Z,19.70
2018-06-05T05:40:53.026Z,19.70
2018-06-05T05:43:21.292Z,19.70
2018-06-05T05:45:49.470Z,19.80
2018-06-05T05:50:45.562Z,19.90
2018-06-05T05:53:13.745Z,19.90
2018-06-05T05:55:41.943Z,20.10
2018-06-05T05:58:10.242Z,20.30
2018-06-05T06:00:38.468Z,20.50
2018-06-05T06:03:06.689Z,20.60
2018-06-05T06:05:34.867Z,20.70
2018-06-05T06:08:03.063Z,20.80
2018-06-05T06:10:31.210Z,21.10
2018-06-05T06:12:59.436Z,21.40
2018-06-05T06:15:27.611Z,21.80
2018-06-05T06:18:09.101Z,22.30
2018-06-05T06:20:37.589Z,22.40
2018-06-05T06:23:05.808Z,22.40
2018-06-05T06:25:33.988Z,22.30
2018-06-05T06:28:02.199Z,22.50
2018-06-05T06:30:30.408Z,22.70
2018-06-05T06:32:58.550Z,22.80
2018-06-05T06:35:26.751Z,23.00
2018-06-05T06:37:54.904Z,23.20
2018-06-05T06:40:23.150Z,23.60
2018-06-05T06:42:51.318Z,23.80
2018-06-05T06:45:19.522Z,23.90
2018-06-05T06:47:48.709Z,24.00
2018-06-05T06:50:16.872Z,23.70
2018-06-05T06:52:45.030Z,23.70
2018-06-05T06:55:13.208Z,23.70
2018-06-05T06:57:41.413Z,23.30
2018-06-05T07:00:09.612Z,23.50
2018-06-05T07:02:37.769Z,23.50
2018-06-05T07:05:05.939Z,23.50
2018-06-05T07:07:34.181Z,23.50
2018-06-05T07:10:02.474Z,23.30
2018-06-05T07:12:30.676Z,23.20
2018-06-05T07:14:58.856Z,23.30
2018-06-05T07:17:27.013Z,23.50
2018-06-05T07:19:55.177Z,23.70
2018-06-05T07:22:23.383Z,23.90
2018-06-05T07:24:51.568Z,23.90
2018-06-05T07:27:19.758Z,24.10
2018-06-05T07:29:47.940Z,24.50
2018-06-05T07:32:16.068Z,24.60
2018-06-05T07:34:44.233Z,24.90
2018-06-05T07:37:12.411Z,25.00
2018-06-05T07:39:40.645Z,24.80
2018-06-05T07:42:08.797Z,25.00
2018-06-05T07:44:36.951Z,25.10
2018-06-05T07:47:05.248Z,25.20
2018-06-05T07:49:33.426Z,25.20
2018-06-05T07:52:07.467Z,25.10
2018-06-05T07:54:35.820Z,25.30
2018-06-05T07:57:04.044Z,25.60
2018-06-05T07:59:32.259Z,25.40
2018-06-05T08:02:00.448Z,25.60
2018-06-05T08:04:28.676Z,25.40
2018-06-05T08:06:56.864Z,25.60
2018-06-05T08:09:25.105Z,25.40
2018-06-05T08:11:53.375Z,25.50
2018-06-05T08:14:21.590Z,25.40
2018-06-05T08:16:49.767Z,25.30
2018-06-05T08:19:17.961Z,25.30
2018-06-05T08:21:46.169Z,25.20
2018-06-05T08:24:14.376Z,25.30
2018-06-05T08:26:59.128Z,25.30
2018-06-05T08:29:27.363Z,25.40
2018-06-05T08:31:55.547Z,25.50
2018-06-05T08:34:23.803Z,25.40
2018-06-05T08:36:52.048Z,25.40
2018-06-05T08:39:20.278Z,25.40
2018-06-05T08:41:48.519Z,25.50
2018-06-05T08:44:16.739Z,25.70
2018-06-05T08:46:45.007Z,25.90
2018-06-05T08:49:13.189Z,25.60
2018-06-05T08:51:41.440Z,25.60
2018-06-05T08:54:09.705Z,25.50
2018-06-05T08:56:38.021Z,25.60
2018-06-05T08:59:06.260Z,25.60
2018-06-05T09:01:34.451Z,26.00
2018-06-05T09:04:02.711Z,26.30
2018-06-05T09:06:30.953Z,26.50
2018-06-05T09:08:59.156Z,26.30
2018-06-05T09:11:27.370Z,26.30
2018-06-05T09:13:55.566Z,26.40
2018-06-05T09:16:23.778Z,26.30
2018-06-05T09:18:51.984Z,26.30
2018-06-05T09:21:20.245Z,26.20
2018-06-05T09:23:48.436Z,26.30
2018-06-05T09:26:16.608Z,26.30
2018-06-05T09:28:44.835Z,26.20
2018-06-05T09:31:13.026Z,26.20
2018-06-05T09:33:41.326Z,26.10
2018-06-05T09:36:09.526Z,26.30
2018-06-05T09:38:37.771Z,26.60
2018-06-05T09:41:05.957Z,26.90
2018-06-05T09:43:34.203Z,26.80
2018-06-05T09:46:02.408Z,26.90
2018-06-05T09:50:58.560Z,27.10
2018-06-05T09:53:26.736Z,27.20
2018-06-05T09:55:54.963Z,27.20
2018-06-05T09:58:23.357Z,27.10
2018-06-05T10:00:52.248Z,27.40
2018-06-05T10:03:23.493Z,27.40
2018-06-05T10:05:51.831Z,27.30
2018-06-05T10:08:20.031Z,27.30
2018-06-05T10:10:48.274Z,27.50
2018-06-05T10:13:16.485Z,27.30
2018-06-05T10:15:44.755Z,27.40
2018-06-05T10:18:13.151Z,27.70
2018-06-05T10:20:41.361Z,27.50
2018-06-05T10:23:09.559Z,27.10
2018-06-05T10:25:42.275Z,27.00
2018-06-05T10:28:10.467Z,27.00
2018-06-05T10:30:38.645Z,27.00
2018-06-05T10:33:06.838Z,27.20
2018-06-05T10:35:35.092Z,27.30
2018-06-05T10:38:03.349Z,26.90
2018-06-05T10:40:31.511Z,26.70
2018-06-05T10:42:59.697Z,26.50
2018-06-05T10:45:27.915Z,26.80
2018-06-05T10:47:56.105Z,26.80
2018-06-05T10:50:39.804Z,26.90
2018-06-05T10:53:09.083Z,27.10
2018-06-05T10:55:37.877Z,27.00
2018-06-05T10:58:06.043Z,27.10
2018-06-05T11:00:34.327Z,27.00
2018-06-05T11:03:02.577Z,27.00
2018-06-05T11:05:30.757Z,27.00
2018-06-05T11:08:02.779Z,27.10
2018-06-05T11:10:30.942Z,26.90
2018-06-05T11:13:07.267Z,27.20
2018-06-05T11:15:35.434Z,27.60
2018-06-05T11:18:06.643Z,27.50
2018-06-05T11:20:34.862Z,27.40
2018-06-05T11:23:03.147Z,27.50
2018-06-05T11:25:37.470Z,27.50
2018-06-05T11:28:05.659Z,27.40
2018-06-05T11:30:33.897Z,27.30
2018-06-05T11:33:02.091Z,27.30
2018-06-05T11:35:30.362Z,27.20
2018-06-05T11:37:58.624Z,27.20
2018-06-05T11:40:26.831Z,27.40
2018-06-05T11:42:55.028Z,27.50
2018-06-05T11:45:23.258Z,27.40
2018-06-05T11:47:51.485Z,27.50
2018-06-05T11:50:19.677Z,27.70
2018-06-05T11:52:47.978Z,27.80
2018-06-05T11:55:16.193Z,27.80
2018-06-05T12:00:42.356Z,27.80
2018-06-05T12:03:10.573Z,27.60
2018-06-05T12:05:38.802Z,27.30
2018-06-05T12:08:07.044Z,27.00
2018-06-05T12:10:35.328Z,27.00
2018-06-05T12:13:03.583Z,26.90
2018-06-05T12:15:31.929Z,26.60
2018-06-05T12:18:00.138Z,26.50
2018-06-05T12:20:28.514Z,26.40
2018-06-05T12:22:56.735Z,26.70
2018-06-05T12:25:25.038Z,27.00
2018-06-05T12:27:53.243Z,26.70
2018-06-05T12:30:21.504Z,26.60
2018-06-05T12:32:49.742Z,26.70
2018-06-05T12:35:17.982Z,26.90
2018-06-05T12:37:46.378Z,26.90
2018-06-05T12:40:15.786Z,26.80
2018-06-05T12:42:44.892Z,26.70
2018-06-05T12:45:13.506Z,26.80
2018-06-05T12:47:41.764Z,27.10
2018-06-05T12:50:10.270Z,27.30
2018-06-05T12:52:38.606Z,27.70
2018-06-05T12:55:06.887Z,27.90
2018-06-05T12:57:35.240Z,27.80
2018-06-05T13:00:03.568Z,27.80
2018-06-05T13:02:31.786Z,27.90
2018-06-05T13:05:00.030Z,27.60
2018-06-05T13:07:28.963Z,27.40
2018-06-05T13:09:57.166Z,27.40
2018-06-05T13:12:25.632Z,27.20
2018-06-05T13:14:53.950Z,27.10
2018-06-05T13:17:22.554Z,27.20
2018-06-05T13:19:50.819Z,27.40
2018-06-05T13:22:19.044Z,27.50
2018-06-05T13:24:47.509Z,27.60
2018-06-05T13:27:15.820Z,27.50
2018-06-05T13:29:44.240Z,27.60
2018-06-05T13:32:12.549Z,27.90
2018-06-05T13:34:40.807Z,27.90
2018-06-05T13:37:09.117Z,27.80
2018-06-05T13:39:37.381Z,27.70
2018-06-05T13:42:05.729Z,27.50
2018-06-05T13:44:34.032Z,27.40
2018-06-05T13:47:02.323Z,27.20
2018-06-05T13:49:30.568Z,27.10
2018-06-05T13:51:58.888Z,26.90
2018-06-05T13:54:27.241Z,27.10
2018-06-05T13:56:55.496Z,27.30
2018-06-05T13:59:24.052Z,27.60
2018-06-05T14:01:52.270Z,27.80
2018-06-05T14:04:21.072Z,27.90
2018-06-05T14:06:50.606Z,27.80
2018-06-05T14:09:19.193Z,27.40
2018-06-05T14:11:47.453Z,27.10
2018-06-05T14:14:15.661Z,27.20
2018-06-05T14:16:43.850Z,27.10
2018-06-05T14:19:12.057Z,26.90
2018-06-05T14:21:40.301Z,26.90
2018-06-05T14:24:08.507Z,26.90
2018-06-05T14:26:36.723Z,27.00
2018-06-05T14:29:04.919Z,26.90
2018-06-05T14:31:33.120Z,27.00
2018-06-05T14:34:01.477Z,27.10
2018-06-05T14:36:29.685Z,27.30
2018-06-05T14:38:57.984Z,27.30
2018-06-05T14:41:26.188Z,27.40
2018-06-05T14:43:54.461Z,27.40
2018-06-05T14:46:22.643Z,27.40
2018-06-05T14:48:51.346Z,27.40
2018-06-05T14:51:21.191Z,27.50
2018-06-05T14:53:49.388Z,27.50
2018-06-05T14:56:17.597Z,27.50
2018-06-05T14:58:45.791Z,27.40
2018-06-05T15:01:14.008Z,27.50
2018-06-05T15:03:42.256Z,27.50
2018-06-05T15:06:10.476Z,27.60
2018-06-05T15:08:38.755Z,27.50
2018-06-05T15:11:07.109Z,27.40
2018-06-05T15:13:35.339Z,27.40
2018-06-05T15:16:03.590Z,27.40
2018-06-05T15:18:31.864Z,27.40
2018-06-05T15:21:00.099Z,27.40
2018-06-05T15:26:17.761Z,27.60
2018-06-05T15:28:45.955Z,27.70
2018-06-05T15:31:14.216Z,27.80
2018-06-05T15:33:42.424Z,27.90
2018-06-05T15:36:10.615Z,27.80
2018-06-05T15:38:38.775Z,27.70
2018-06-05T15:41:06.982Z,27.70
2018-06-05T15:43:35.130Z,27.80
2018-06-05T15:46:03.403Z,27.80
2018-06-05T15:48:31.612Z,27.80
2018-06-05T15:50:59.827Z,27.80
2018-06-05T15:53:27.995Z,27.80
2018-06-05T15:55:56.169Z,28.00
2018-06-05T15:58:24.388Z,28.10
2018-06-05T16:00:52.555Z,28.00
2018-06-05T16:03:20.791Z,27.90
2018-06-05T16:05:48.984Z,27.80
2018-06-05T16:08:34.174Z,27.80
2018-06-05T16:11:02.466Z,27.80
2018-06-05T16:13:30.680Z,27.70
2018-06-05T16:15:58.863Z,27.40
2018-06-05T16:18:27.079Z,27.40
2018-06-05T16:20:55.231Z,27.20
2018-06-05T16:23:23.450Z,27.30
2018-06-05T16:25:51.739Z,27.40
2018-06-05T16:28:20.092Z,27.50
2018-06-05T16:30:48.561Z,28.10
2018-06-05T16:33:16.841Z,28.30
2018-06-05T16:35:45.090Z,28.20
2018-06-05T16:38:13.363Z,28.00
2018-06-05T16:40:41.740Z,27.80
2018-06-05T16:43:16.591Z,27.80
2018-06-05T16:45:46.096Z,27.70
2018-06-05T16:48:14.326Z,27.90
2018-06-05T16:50:42.552Z,28.00
2018-06-05T16:53:10.872Z,27.80
2018-06-05T16:55:39.223Z,27.80
2018-06-05T16:58:07.443Z,27.50
2018-06-05T17:00:35.788Z,27.60
2018-06-05T17:03:04.131Z,27.70
2018-06-05T17:05:32.353Z,27.70
2018-06-05T17:08:00.688Z,27.70
2018-06-05T17:13:26.339Z,27.80
2018-06-05T17:15:54.548Z,27.90
2018-06-05T17:18:22.761Z,28.30
2018-06-05T17:20:51.150Z,29.20
2018-06-05T17:23:19.468Z,29.40
2018-06-05T17:25:47.721Z,29.50
2018-06-05T17:28:15.987Z,29.50
2018-06-05T17:30:44.242Z,29.80
2018-06-05T17:33:12.801Z,29.60
2018-06-05T17:35:41.107Z,29.10
2018-06-05T17:38:09.452Z,28.10
2018-06-05T17:40:37.801Z,27.80
2018-06-05T17:43:06.048Z,27.70
2018-06-05T17:45:34.420Z,27.30
2018-06-05T17:48:03.253Z,27.10
2018-06-05T17:50:31.569Z,27.00
2018-06-05T17:52:59.870Z,27.00
2018-06-05T17:55:28.209Z,26.90
2018-06-05T17:57:56.483Z,26.90
2018-06-05T18:00:24.803Z,26.90
2018-06-05T18:02:53.040Z,26.90
2018-06-05T18:05:21.454Z,27.10
2018-06-05T18:07:49.675Z,27.00
2018-06-05T18:10:17.894Z,26.70
2018-06-05T18:12:46.240Z,26.50
2018-06-05T18:15:14.452Z,26.40
2018-06-05T18:17:42.719Z,26.30
2018-06-05T18:20:10.981Z,26.30
2018-06-05T18:22:39.275Z,26.30
2018-06-05T18:25:07.535Z,26.30
2018-06-05T18:27:35.762Z,26.10
2018-06-05T18:30:04.005Z,26.10
2018-06-05T18:32:32.235Z,26.20
2018-06-05T18:35:00.511Z,26.30
2018-06-05T18:37:28.739Z,26.20
2018-06-05T18:39:56.971Z,26.20
2018-06-05T18:42:25.250Z,26.20
2018-06-05T18:44:53.435Z,26.10
2018-06-05T18:47:21.700Z,25.90
2018-06-05T18:49:49.898Z,25.80
2018-06-05T18:52:18.102Z,25.80
2018-06-05T18:54:46.409Z,25.70
2018-06-05T18:57:14.699Z,25.70
2018-06-05T18:59:42.960Z,25.60
2018-06-05T19:02:11.162Z,25.50
2018-06-05T19:04:39.385Z,25.50
2018-06-05T19:07:07.619Z,25.30
2018-06-05T19:09:35.848Z,25.20
2018-06-05T19:12:04.048Z,25.00
2018-06-05T19:14:32.334Z,24.80
2018-06-05T19:17:00.567Z,24.70
2018-06-05T19:19:28.853Z,24.50
2018-06-05T19:21:57.066Z,24.30
2018-06-05T19:24:25.309Z,24.20
2018-06-05T19:26:53.495Z,24.00
2018-06-05T19:29:21.807Z,23.90
2018-06-05T19:31:50.000Z,23.80
2018-06-05T19:34:18.280Z,23.60
2018-06-05T19:36:46.537Z,23.40
2018-06-05T19:39:14.794Z,23.20
2018-06-05T19:41:43.036Z,23.00
2018-06-05T19:44:11.400Z,22.90
2018-06-05T19:46:39.728Z,22.70
2018-06-05T19:49:07.896Z,22.60
2018-06-05T19:51:36.125Z,22.40
2018-06-05T19:54:05.669Z,22.40
2018-06-05T19:56:33.893Z,22.20
2018-06-05T19:59:02.188Z,22.00
2018-06-05T20:01:30.495Z,22.00
2018-06-05T20:03:58.713Z,21.90
2018-06-05T20:06:27.017Z,21.90
2018-06-05T20:08:55.292Z,21.80
2018-06-05T20:11:23.544Z,21.60
2018-06-05T20:13:51.772Z,21.60
2018-06-05T20:16:20.008Z,21.50
2018-06-05T20:18:48.368Z,21.40
2018-06-05T20:21:16.580Z,21.40
2018-06-05T20:23:44.844Z,21.30
2018-06-05T20:26:13.243Z,21.30
2018-06-05T20:28:41.456Z,21.20
2018-06-05T20:31:09.655Z,21.20
2018-06-05T20:33:38.115Z,21.10
2018-06-05T20:36:06.335Z,21.10
2018-06-05T20:38:34.579Z,21.00
2018-06-05T20:41:02.812Z,21.10
2018-06-05T20:45:59.056Z,21.10
2018-06-05T20:50:55.344Z,21.00
2018-06-05T20:53:23.640Z,21.10
2018-06-05T20:55:51.961Z,20.90
2018-06-05T20:58:20.227Z,20.90
2018-06-05T21:00:48.497Z,21.00
2018-06-05T21:03:16.775Z,20.90
2018-06-05T21:05:45.013Z,21.00
2018-06-05T21:08:13.261Z,21.00
2018-06-05T21:10:41.605Z,21.00
2018-06-05T21:13:09.862Z,21.00
2018-06-05T21:15:38.234Z,21.10
2018-06-05T21:18:06.513Z,21.10
2018-06-05T21:20:34.771Z,21.00
2018-06-05T21:23:03.065Z,21.00
2018-06-05T21:25:31.347Z,21.00
2018-06-05T21:28:01.773Z,21.00
2018-06-05T21:30:30.100Z,21.00
2018-06-05T21:32:58.376Z,21.00
2018-06-05T21:35:26.620Z,21.00
2018-06-05T21:37:54.852Z,20.90
2018-06-05T21:40:23.044Z,20.90
2018-06-05T21:42:51.327Z,20.80
2018-06-05T21:45:19.603Z,20.80
2018-06-05T21:47:47.928Z,20.90
2018-06-05T21:50:16.256Z,20.80
2018-06-05T21:52:58.307Z,20.80
2018-06-05T21:55:26.686Z,20.80
2018-06-05T21:58:02.868Z,20.70
2018-06-05T22:00:34.453Z,20.70
2018-06-05T22:03:02.828Z,20.80
2018-06-05T22:05:34.539Z,20.70
2018-06-05T22:08:04.883Z,20.70
2018-06-05T22:10:33.236Z,20.70
2018-06-05T22:13:01.450Z,20.60
2018-06-05T22:15:29.722Z,20.60
2018-06-05T22:17:58.034Z,20.50
2018-06-05T22:20:26.345Z,20.40
2018-06-05T22:22:54.571Z,20.30
2018-06-05T22:25:22.816Z,20.30
2018-06-05T22:27:51.007Z,20.30
2018-06-05T22:30:19.309Z,20.20
2018-06-05T22:32:47.521Z,20.20
2018-06-05T22:35:15.726Z,20.10
2018-06-05T22:37:43.994Z,20.10
2018-06-05T22:40:12.151Z,20.10
2018-06-05T22:42:40.336Z,20.00
2018-06-05T22:45:08.527Z,20.00
2018-06-05T22:47:36.700Z,19.90
2018-06-05T22:50:04.915Z,19.90
2018-06-05T22:52:33.181Z,19.80
2018-06-05T22:55:01.396Z,19.70
2018-06-05T22:57:29.598Z,19.60
2018-06-05T22:59:57.764Z,19.50
2018-06-05T23:02:25.953Z,19.40
2018-06-05T23:07:22.105Z,19.30
2018-06-05T23:09:50.277Z,19.30
2018-06-05T23:12:18.454Z,19.30
2018-06-05T23:14:46.632Z,19.20
2018-06-05T23:17:14.831Z,19.20
2018-06-05T23:19:43.054Z,19.20
2018-06-05T23:22:11.257Z,19.10
2018-06-05T23:24:39.521Z,19.10
2018-06-05T23:27:07.710Z,19.00
2018-06-05T23:29:35.907Z,19.00
2018-06-05T23:32:04.134Z,18.90
2018-06-05T23:34:32.413Z,18.90
2018-06-05T23:37:00.683Z,18.90
2018-06-05T23:39:35.395Z,18.80
2018-06-05T23:42:03.589Z,18.80
2018-06-05T23:46:59.777Z,18.60
2018-06-05T23:49:27.962Z,18.60
2018-06-05T23:51:59.356Z,18.60
2018-06-05T23:54:27.717Z,18.50
2018-06-05T23:56:56.011Z,18.50
2018-06-05T23:59:24.386Z,18.40
